createdAt,value
2024-02-29T00:00:37.630Z,19.25
2024-02-29T00:03:05.758Z,18.33
2024-02-29T00:05:33.902Z,18.60
2024-02-29T00:08:02.857Z,19.00
2024-02-29T00:10:31.057Z,18.98
2024-02-29T00:13:00.931Z,17.73
2024-02-29T00:15:30.518Z,17.35
2024-02-29T00:17:58.953Z,18.20
2024-02-29T00:20:26.973Z,16.83
2024-02-29T00:22:55.171Z,17.17
2024-02-29T00:25:23.284Z,17.92
2024-02-29T00:27:51.274Z,17.58
2024-02-29T00:30:20.693Z,17.77
2024-02-29T00:32:48.812Z,17.85
2024-02-29T00:35:17.446Z,18.73
2024-02-29T00:37:46.125Z,17.38
2024-02-29T00:40:14.446Z,19.10
2024-02-29T00:42:42.463Z,20.30
2024-02-29T00:45:10.842Z,20.38
2024-02-29T00:47:40.292Z,23.63
2024-02-29T00:50:09.385Z,21.50
2024-02-29T00:52:37.423Z,21.25
2024-02-29T00:55:08.262Z,21.95
2024-02-29T00:57:36.404Z,22.77
2024-02-29T01:00:04.201Z,22.40
2024-02-29T01:02:32.108Z,23.58
2024-02-29T01:05:01.578Z,22.42
2024-02-29T01:07:29.617Z,23.42
2024-02-29T01:09:59.371Z,22.80
2024-02-29T01:12:27.329Z,23.45
2024-02-29T01:14:55.333Z,22.15
2024-02-29T01:17:24.149Z,22.25
2024-02-29T01:19:52.148Z,22.65
2024-02-29T01:22:21.487Z,22.45
2024-02-29T01:24:49.509Z,21.98
2024-02-29T01:27:17.450Z,21.83
2024-02-29T01:29:45.695Z,21.27
2024-02-29T01:32:19.083Z,22.50
2024-02-29T01:34:54.113Z,22.30
2024-02-29T01:37:23.587Z,21.92
2024-02-29T01:39:51.791Z,22.65
2024-02-29T01:42:20.018Z,22.42
2024-02-29T01:44:54.555Z,21.58
2024-02-29T01:47:22.717Z,21.45
2024-02-29T01:49:51.258Z,23.00
2024-02-29T01:52:20.650Z,23.70
2024-02-29T01:54:50.097Z,24.48
2024-02-29T01:57:18.357Z,26.20
2024-02-29T01:59:47.787Z,24.38
2024-02-29T02:02:15.783Z,24.73
2024-02-29T02:04:43.774Z,24.00
2024-02-29T02:07:12.066Z,22.90
2024-02-29T02:09:42.493Z,23.30
2024-02-29T02:12:12.677Z,22.90
2024-02-29T02:14:41.021Z,23.55
2024-02-29T02:17:10.297Z,23.30
2024-02-29T02:19:40.656Z,22.83
2024-02-29T02:22:11.702Z,24.50
2024-02-29T02:24:39.797Z,25.85
2024-02-29T02:27:08.197Z,25.23
2024-02-29T02:29:36.205Z,25.55
2024-02-29T02:32:04.564Z,24.85
2024-02-29T02:34:32.628Z,25.65
2024-02-29T02:37:00.766Z,23.48
2024-02-29T02:39:30.262Z,24.67
2024-02-29T02:41:58.881Z,26.08
2024-02-29T02:44:26.859Z,25.65
2024-02-29T02:46:54.912Z,23.85
2024-02-29T02:49:22.893Z,24.25
2024-02-29T02:51:50.931Z,26.92
2024-02-29T02:54:19.318Z,26.00
2024-02-29T02:56:48.647Z,24.55
2024-02-29T02:59:16.708Z,24.40
2024-02-29T03:01:44.693Z,25.88
2024-02-29T03:04:13.316Z,26.17
2024-02-29T03:06:41.502Z,27.10
2024-02-29T03:09:10.120Z,29.30
2024-02-29T03:11:38.414Z,27.63
2024-02-29T03:14:07.989Z,27.63
2024-02-29T03:16:36.616Z,27.65
2024-02-29T03:19:06.105Z,27.92
2024-02-29T03:21:34.271Z,28.13
2024-02-29T03:24:02.397Z,25.98
2024-02-29T03:26:30.569Z,26.80
2024-02-29T03:28:58.528Z,25.60
2024-02-29T03:31:27.958Z,26.17
2024-02-29T03:33:56.013Z,25.77
2024-02-29T03:36:24.020Z,26.17
2024-02-29T03:38:51.972Z,26.05
2024-02-29T03:41:19.971Z,25.48
2024-02-29T03:43:47.974Z,26.40
2024-02-29T03:46:15.101Z,26.20
2024-02-29T03:48:44.552Z,24.85
2024-02-29T03:51:12.487Z,26.90
2024-02-29T03:53:40.734Z,27.80
2024-02-29T03:56:09.029Z,27.13
2024-02-29T03:58:37.290Z,28.63
2024-02-29T04:01:11.849Z,26.63
2024-02-29T04:03:40.575Z,26.27
2024-02-29T04:06:10.480Z,27.65
2024-02-29T04:08:38.825Z,27.38
2024-02-29T04:11:06.849Z,28.98
2024-02-29T04:13:34.881Z,27.73
2024-02-29T04:16:03.791Z,28.08
2024-02-29T04:18:32.045Z,28.77
2024-02-29T04:21:00.006Z,27.70
2024-02-29T04:23:29.404Z,27.88
2024-02-29T04:25:57.581Z,27.40
2024-02-29T04:28:25.635Z,25.75
2024-02-29T04:30:53.756Z,25.75
2024-02-29T04:33:21.896Z,27.85
2024-02-29T04:35:50.131Z,27.83
2024-02-29T04:38:19.343Z,27.42
2024-02-29T04:40:48.878Z,28.42
2024-02-29T04:43:17.865Z,29.83
2024-02-29T04:45:46.019Z,29.25
2024-02-29T04:48:14.128Z,28.85
2024-02-29T04:50:42.173Z,28.85
2024-02-29T04:53:10.066Z,29.20
2024-02-29T04:55:38.048Z,29.55
2024-02-29T04:58:07.536Z,30.15
2024-02-29T05:00:35.764Z,30.35
2024-02-29T05:03:04.074Z,29.33
2024-02-29T05:05:32.097Z,28.67
2024-02-29T05:08:01.726Z,27.50
2024-02-29T05:10:29.943Z,29.45
2024-02-29T05:12:58.057Z,27.50
2024-02-29T05:15:27.439Z,26.33
2024-02-29T05:17:55.780Z,27.70
2024-02-29T05:20:24.142Z,27.75
2024-02-29T05:22:55.028Z,28.92
2024-02-29T05:25:23.451Z,27.20
2024-02-29T05:27:51.555Z,27.73
2024-02-29T05:30:19.687Z,26.33
2024-02-29T05:32:49.875Z,27.17
2024-02-29T05:35:18.088Z,26.20
2024-02-29T05:37:46.113Z,27.35
2024-02-29T05:40:15.315Z,27.73
2024-02-29T05:42:43.718Z,28.02
2024-02-29T05:45:12.590Z,26.77
2024-02-29T05:47:40.774Z,28.15
2024-02-29T05:50:10.736Z,26.75
2024-02-29T05:52:38.916Z,25.27
2024-02-29T05:55:07.777Z,27.60
2024-02-29T05:57:36.251Z,26.08
2024-02-29T06:00:05.371Z,27.75
2024-02-29T06:05:07.266Z,25.10
2024-02-29T06:07:37.922Z,26.35
2024-02-29T06:10:10.265Z,27.38
2024-02-29T06:12:38.448Z,27.00
2024-02-29T06:15:11.094Z,28.10
2024-02-29T06:17:42.528Z,27.85
2024-02-29T06:20:13.279Z,26.15
2024-02-29T06:22:43.185Z,27.63
2024-02-29T06:25:11.748Z,27.05
2024-02-29T06:27:40.661Z,27.30
2024-02-29T06:30:10.920Z,26.60
2024-02-29T06:32:41.778Z,25.65
2024-02-29T06:35:11.194Z,26.45
2024-02-29T06:37:43.867Z,24.95
2024-02-29T06:40:13.618Z,26.05
2024-02-29T06:42:42.173Z,26.38
2024-02-29T06:45:11.778Z,26.90
2024-02-29T06:47:41.386Z,26.40
2024-02-29T06:50:10.150Z,28.05
2024-02-29T06:52:38.908Z,27.45
2024-02-29T06:55:09.765Z,26.77
2024-02-29T06:57:38.132Z,27.50
2024-02-29T07:00:07.400Z,28.98
2024-02-29T07:02:35.710Z,28.67
2024-02-29T07:05:04.010Z,28.00
2024-02-29T07:07:31.978Z,28.45
2024-02-29T07:10:00.012Z,28.80
2024-02-29T07:12:29.387Z,26.92
2024-02-29T07:14:57.975Z,27.60
2024-02-29T07:17:25.998Z,26.70
2024-02-29T07:19:54.036Z,27.17
2024-02-29T07:22:22.159Z,25.88
2024-02-29T07:24:50.256Z,27.88
2024-02-29T07:27:18.276Z,27.92
2024-02-29T07:29:47.961Z,26.52
2024-02-29T07:32:16.280Z,25.52
2024-02-29T07:34:44.242Z,27.05
2024-02-29T07:37:12.238Z,26.15
2024-02-29T07:39:40.219Z,26.65
2024-02-29T07:42:08.269Z,25.63
2024-02-29T07:44:36.436Z,26.88
2024-02-29T07:47:06.270Z,25.20
2024-02-29T07:49:34.256Z,25.90
2024-02-29T07:52:02.927Z,27.27
2024-02-29T07:54:30.949Z,26.25
2024-02-29T07:56:59.048Z,25.17
2024-02-29T07:59:27.290Z,25.85
2024-02-29T08:01:55.453Z,27.25
2024-02-29T08:04:24.866Z,27.38
2024-02-29T08:06:53.104Z,25.50
2024-02-29T08:09:22.658Z,26.13
2024-02-29T08:11:50.630Z,24.45
2024-02-29T08:14:20.690Z,24.67
2024-02-29T08:16:48.959Z,24.13
2024-02-29T08:19:17.806Z,24.77
2024-02-29T08:21:48.913Z,24.85
2024-02-29T08:24:17.753Z,24.60
2024-02-29T08:26:45.989Z,23.40
2024-02-29T08:29:14.884Z,22.50
2024-02-29T08:31:44.326Z,21.55
2024-02-29T08:34:12.490Z,23.08
2024-02-29T08:36:41.041Z,21.35
2024-02-29T08:39:10.504Z,21.48
2024-02-29T08:41:38.529Z,22.05
2024-02-29T08:44:06.514Z,21.95
2024-02-29T08:46:34.554Z,21.20
2024-02-29T08:49:04.051Z,21.38
2024-02-29T08:51:32.859Z,21.42
2024-02-29T08:54:01.253Z,22.55
2024-02-29T08:56:30.667Z,22.52
2024-02-29T08:58:58.614Z,21.80
2024-02-29T09:01:27.412Z,22.67
2024-02-29T09:03:55.598Z,21.63
2024-02-29T09:06:23.648Z,21.40
2024-02-29T09:08:51.683Z,21.33
2024-02-29T09:11:20.010Z,21.02
2024-02-29T09:13:49.476Z,19.65
2024-02-29T09:16:17.824Z,19.15
2024-02-29T09:18:45.970Z,19.08
2024-02-29T09:21:13.877Z,19.42
2024-02-29T09:23:42.034Z,19.20
2024-02-29T09:26:09.982Z,19.95
2024-02-29T09:28:37.905Z,21.15
2024-02-29T09:31:07.388Z,19.70
2024-02-29T09:33:35.584Z,20.20
2024-02-29T09:36:08.563Z,19.65
2024-02-29T09:38:36.863Z,19.67
2024-02-29T09:41:18.444Z,22.00
2024-02-29T09:43:55.934Z,19.85
2024-02-29T09:46:25.377Z,19.48
2024-02-29T09:48:54.315Z,18.95
2024-02-29T09:51:23.830Z,18.48
2024-02-29T09:53:54.306Z,20.13
2024-02-29T09:56:25.137Z,18.67
2024-02-29T09:58:54.718Z,19.67
2024-02-29T10:01:24.404Z,19.20
2024-02-29T10:03:56.744Z,17.75
2024-02-29T10:06:24.817Z,20.08
2024-02-29T10:08:52.922Z,19.50
2024-02-29T10:11:22.080Z,20.90
2024-02-29T10:13:50.363Z,19.77
2024-02-29T10:16:18.621Z,18.05
2024-02-29T10:18:46.725Z,18.00
2024-02-29T10:21:16.848Z,18.83
2024-02-29T10:23:45.468Z,20.42
2024-02-29T10:26:13.424Z,19.52
2024-02-29T10:28:41.505Z,19.60
2024-02-29T10:31:09.964Z,18.73
2024-02-29T10:33:39.966Z,19.35
2024-02-29T10:36:13.068Z,19.35
2024-02-29T10:38:42.592Z,19.98
2024-02-29T10:41:12.772Z,18.55
2024-02-29T10:43:45.057Z,19.65
2024-02-29T10:46:16.179Z,18.95
2024-02-29T10:48:51.022Z,19.10
2024-02-29T10:51:27.288Z,19.52
2024-02-29T10:54:07.716Z,20.10
2024-02-29T10:56:38.028Z,19.42
2024-02-29T10:59:08.777Z,18.83
2024-02-29T11:01:38.706Z,20.13
2024-02-29T11:04:07.604Z,19.13
2024-02-29T11:06:40.119Z,19.55
2024-02-29T11:09:10.535Z,20.02
2024-02-29T11:11:39.460Z,20.50
2024-02-29T11:14:11.889Z,19.40
2024-02-29T11:16:41.169Z,18.90
2024-02-29T11:19:12.764Z,19.05
2024-02-29T11:21:41.051Z,17.85
2024-02-29T11:24:11.782Z,18.27
2024-02-29T11:26:39.819Z,19.00
2024-02-29T11:29:15.859Z,18.50
2024-02-29T11:31:45.413Z,18.75
2024-02-29T11:34:13.545Z,18.58
2024-02-29T11:36:43.028Z,18.15
2024-02-29T11:39:12.414Z,18.00
2024-02-29T11:41:40.394Z,17.83
2024-02-29T11:44:08.543Z,18.75
2024-02-29T11:46:36.583Z,17.90
2024-02-29T11:49:04.619Z,17.38
2024-02-29T11:51:33.015Z,18.88
2024-02-29T11:54:01.243Z,18.63
2024-02-29T11:56:31.797Z,17.80
2024-02-29T11:59:03.313Z,17.63
2024-02-29T12:01:31.910Z,17.70
2024-02-29T12:03:59.942Z,18.13
2024-02-29T12:06:28.060Z,18.45
2024-02-29T12:08:57.038Z,19.15
2024-02-29T12:11:26.349Z,18.40
2024-02-29T12:13:56.428Z,17.63
2024-02-29T12:16:25.735Z,17.83
2024-02-29T12:18:54.025Z,19.27
2024-02-29T12:21:22.090Z,17.40
2024-02-29T12:23:51.897Z,15.10
2024-02-29T12:26:22.561Z,12.50
2024-02-29T12:28:50.656Z,11.05
2024-02-29T12:31:21.020Z,10.52
2024-02-29T12:33:50.218Z,11.45
2024-02-29T12:36:20.068Z,11.13
2024-02-29T12:38:49.578Z,10.90
2024-02-29T12:41:17.986Z,10.77
2024-02-29T12:43:49.524Z,11.13
2024-02-29T12:46:20.417Z,9.70
2024-02-29T12:48:48.700Z,10.25
2024-02-29T12:51:16.741Z,10.27
2024-02-29T12:53:44.733Z,9.27
2024-02-29T12:56:12.901Z,9.02
2024-02-29T12:58:42.266Z,8.48
2024-02-29T13:01:10.977Z,9.05
2024-02-29T13:03:40.385Z,9.23
2024-02-29T13:06:10.472Z,9.13
2024-02-29T13:08:39.173Z,8.70
2024-02-29T13:11:07.272Z,8.43
2024-02-29T13:13:35.223Z,8.80
2024-02-29T13:16:03.328Z,8.57
2024-02-29T13:18:31.313Z,8.93
2024-02-29T13:21:02.451Z,8.93
2024-02-29T13:23:31.999Z,8.48
2024-02-29T13:26:00.515Z,8.90
2024-02-29T13:28:28.831Z,8.20
2024-02-29T13:30:56.820Z,8.55
2024-02-29T13:33:24.829Z,9.18
2024-02-29T13:35:52.772Z,9.13
2024-02-29T13:38:22.086Z,8.85
2024-02-29T13:40:50.213Z,8.90
2024-02-29T13:43:18.158Z,8.65
2024-02-29T13:45:46.192Z,8.32
2024-02-29T13:48:14.649Z,8.65
2024-02-29T13:50:43.612Z,8.25
2024-02-29T13:53:11.945Z,8.52
2024-02-29T13:55:41.314Z,8.65
2024-02-29T13:58:09.364Z,9.00
2024-02-29T14:00:37.432Z,8.65
2024-02-29T14:03:05.790Z,8.32
2024-02-29T14:05:33.795Z,8.57
2024-02-29T14:08:01.717Z,8.48
2024-02-29T14:10:29.763Z,9.07
2024-02-29T14:12:59.782Z,8.43
2024-02-29T14:15:27.797Z,9.05
2024-02-29T14:17:55.797Z,8.65
2024-02-29T14:20:23.776Z,8.82
2024-02-29T14:22:51.984Z,8.45
2024-02-29T14:25:20.068Z,8.65
2024-02-29T14:27:48.099Z,8.95
2024-02-29T14:30:18.313Z,8.82
2024-02-29T14:32:46.408Z,9.10
2024-02-29T14:35:14.580Z,8.48
2024-02-29T14:37:42.738Z,9.82
2024-02-29T14:40:12.764Z,9.75
2024-02-29T14:42:41.030Z,9.73
2024-02-29T14:45:10.057Z,9.45
2024-02-29T14:47:39.677Z,9.05
2024-02-29T14:50:09.156Z,9.40
2024-02-29T14:52:40.537Z,9.55
2024-02-29T14:55:09.307Z,9.60
2024-02-29T14:57:37.644Z,9.43
2024-02-29T15:00:15.375Z,9.27
2024-02-29T15:02:45.084Z,9.18
2024-02-29T15:05:14.057Z,9.00
2024-02-29T15:07:42.956Z,9.07
2024-02-29T15:10:12.667Z,9.20
2024-02-29T15:12:41.782Z,9.32
2024-02-29T15:15:10.991Z,9.55
2024-02-29T15:17:39.486Z,8.80
2024-02-29T15:20:11.310Z,8.98
2024-02-29T15:22:40.747Z,9.20
2024-02-29T15:25:17.023Z,9.75
2024-02-29T15:27:47.562Z,10.00
2024-02-29T15:30:16.528Z,9.18
2024-02-29T15:32:44.579Z,9.27
2024-02-29T15:35:15.032Z,9.82
2024-02-29T15:37:43.381Z,10.13
2024-02-29T15:40:12.605Z,9.27
2024-02-29T15:42:40.935Z,10.40
2024-02-29T15:45:09.639Z,9.40
2024-02-29T15:47:37.798Z,9.90
2024-02-29T15:50:09.098Z,8.68
2024-02-29T15:52:38.603Z,9.07
2024-02-29T15:55:07.868Z,8.85
2024-02-29T15:57:36.054Z,8.45
2024-02-29T16:00:05.528Z,8.68
2024-02-29T16:02:40.515Z,8.45
2024-02-29T16:05:09.119Z,8.45
2024-02-29T16:07:38.433Z,8.75
2024-02-29T16:10:07.359Z,7.75
2024-02-29T16:12:36.050Z,7.80
2024-02-29T16:15:04.495Z,8.27
2024-02-29T16:17:32.524Z,8.73
2024-02-29T16:20:01.145Z,8.32
2024-02-29T16:22:29.618Z,7.70
2024-02-29T16:24:59.000Z,8.25
2024-02-29T16:27:27.115Z,7.90
2024-02-29T16:29:55.218Z,8.65
2024-02-29T16:32:23.161Z,10.55
2024-02-29T16:34:51.081Z,8.98
2024-02-29T16:37:29.285Z,9.27
2024-02-29T16:39:58.780Z,9.20
2024-02-29T16:42:27.417Z,9.73
2024-02-29T16:44:55.992Z,10.20
2024-02-29T16:47:24.098Z,9.07
2024-02-29T16:49:52.315Z,10.05
2024-02-29T16:52:25.787Z,10.77
2024-02-29T16:54:56.219Z,10.25
2024-02-29T16:57:26.160Z,11.75
2024-02-29T16:59:54.403Z,11.57
2024-02-29T17:02:23.671Z,12.50
2024-02-29T17:04:52.617Z,12.18
2024-02-29T17:07:20.696Z,11.52
2024-02-29T17:09:48.993Z,11.52
2024-02-29T17:12:17.082Z,11.07
2024-02-29T17:14:46.485Z,12.30
2024-02-29T17:17:14.844Z,11.43
2024-02-29T17:19:43.380Z,14.57
2024-02-29T17:22:12.608Z,13.02
2024-02-29T17:24:40.600Z,13.02
2024-02-29T17:27:08.990Z,12.70
2024-02-29T17:29:37.341Z,12.15
2024-02-29T17:32:07.523Z,12.63
2024-02-29T17:34:35.670Z,13.27
2024-02-29T17:37:03.657Z,13.18
2024-02-29T17:39:41.303Z,12.35
2024-02-29T17:42:09.754Z,12.60
2024-02-29T17:44:38.390Z,12.88
2024-02-29T17:47:07.867Z,12.90
2024-02-29T17:49:35.930Z,15.15
2024-02-29T17:52:04.239Z,15.27
2024-02-29T17:54:32.306Z,13.85
2024-02-29T17:57:00.778Z,14.73
2024-02-29T17:59:29.010Z,14.45
2024-02-29T18:01:57.163Z,13.35
2024-02-29T18:04:26.850Z,13.77
2024-02-29T18:06:55.014Z,14.32
2024-02-29T18:09:23.223Z,14.48
2024-02-29T18:11:52.859Z,13.93
2024-02-29T18:14:20.919Z,14.57
2024-02-29T18:16:49.026Z,14.45
2024-02-29T18:19:18.760Z,15.93
2024-02-29T18:21:49.435Z,14.63
2024-02-29T18:24:17.646Z,14.88
2024-02-29T18:26:47.398Z,14.48
2024-02-29T18:29:17.110Z,15.10
2024-02-29T18:31:45.392Z,15.07
2024-02-29T18:34:13.421Z,14.95
2024-02-29T18:36:42.644Z,15.80
2024-02-29T18:39:15.091Z,16.55
2024-02-29T18:41:43.658Z,15.82
2024-02-29T18:44:13.323Z,15.23
2024-02-29T18:46:43.176Z,15.93
2024-02-29T18:49:11.740Z,16.48
2024-02-29T18:51:44.551Z,16.05
2024-02-29T18:54:14.329Z,16.23
2024-02-29T18:56:43.844Z,15.77
2024-02-29T18:59:13.939Z,16.80
2024-02-29T19:01:44.823Z,17.33
2024-02-29T19:04:13.239Z,18.63
2024-02-29T19:06:41.261Z,17.38
2024-02-29T19:09:09.692Z,17.55
2024-02-29T19:11:41.048Z,17.73
2024-02-29T19:14:09.126Z,18.58
2024-02-29T19:16:40.328Z,17.67
2024-02-29T19:19:08.362Z,18.52
2024-02-29T19:21:37.670Z,17.50
2024-02-29T19:24:08.055Z,18.80
2024-02-29T19:26:37.145Z,18.58
2024-02-29T19:29:07.163Z,18.20
2024-02-29T19:31:40.223Z,18.42
2024-02-29T19:34:10.368Z,17.17
2024-02-29T19:36:38.371Z,18.52
2024-02-29T19:39:06.372Z,19.05
2024-02-29T19:41:34.414Z,19.30
2024-02-29T19:44:02.413Z,19.20
2024-02-29T19:46:31.866Z,20.92
2024-02-29T19:49:00.516Z,19.55
2024-02-29T19:51:28.620Z,20.45
2024-02-29T19:53:57.207Z,18.65
2024-02-29T19:56:25.209Z,20.73
2024-02-29T19:58:53.373Z,18.10
2024-02-29T20:01:21.405Z,19.83
2024-02-29T20:03:50.856Z,19.48
2024-02-29T20:06:18.855Z,21.20
2024-02-29T20:08:46.794Z,20.20
2024-02-29T20:11:14.945Z,19.40
2024-02-29T20:13:43.171Z,20.45
2024-02-29T20:16:11.156Z,23.55
2024-02-29T20:18:39.265Z,20.00
2024-02-29T20:21:09.045Z,19.17
2024-02-29T20:23:37.158Z,20.30
2024-02-29T20:26:05.371Z,21.50
2024-02-29T20:28:33.425Z,21.60
2024-02-29T20:31:02.484Z,21.80
2024-02-29T20:33:30.483Z,23.13
2024-02-29T20:35:58.495Z,21.45
2024-02-29T20:38:27.824Z,22.25
2024-02-29T20:40:55.832Z,22.08
2024-02-29T20:43:23.936Z,22.85
2024-02-29T20:45:52.524Z,24.02
2024-02-29T20:48:20.611Z,24.55
2024-02-29T20:50:48.577Z,23.23
2024-02-29T20:53:17.191Z,24.08
2024-02-29T20:55:46.622Z,24.42
2024-02-29T20:58:15.835Z,22.75
2024-02-29T21:00:44.217Z,22.70
2024-02-29T21:03:12.352Z,24.25
2024-02-29T21:05:40.378Z,23.38
2024-02-29T21:08:08.641Z,25.27
2024-02-29T21:10:37.027Z,24.65
2024-02-29T21:13:06.780Z,24.20
2024-02-29T21:15:34.820Z,24.25
2024-02-29T21:18:04.031Z,24.83
2024-02-29T21:20:32.145Z,24.80
2024-02-29T21:23:00.064Z,24.25
2024-02-29T21:25:28.257Z,25.65
2024-02-29T21:27:56.466Z,24.85
2024-02-29T21:30:25.794Z,25.90
2024-02-29T21:32:53.958Z,26.75
2024-02-29T21:35:22.580Z,27.00
2024-02-29T21:37:50.866Z,27.40
2024-02-29T21:40:19.142Z,26.17
2024-02-29T21:42:48.369Z,26.08
2024-02-29T21:45:16.946Z,27.88
2024-02-29T21:47:46.310Z,26.88
2024-02-29T21:50:14.781Z,26.80
2024-02-29T21:52:42.844Z,28.05
2024-02-29T21:55:11.862Z,27.88
2024-02-29T21:57:39.888Z,27.13
2024-02-29T22:00:09.977Z,27.27
2024-02-29T22:02:42.040Z,28.90
2024-02-29T22:05:13.366Z,27.30
2024-02-29T22:07:42.497Z,27.15
2024-02-29T22:10:11.282Z,26.80
2024-02-29T22:12:39.639Z,26.92
2024-02-29T22:15:09.751Z,29.20
2024-02-29T22:17:37.914Z,28.48
2024-02-29T22:20:09.669Z,28.13
2024-02-29T22:22:39.052Z,29.88
2024-02-29T22:25:07.846Z,28.98
2024-02-29T22:27:35.752Z,28.85
2024-02-29T22:30:04.322Z,28.90
2024-02-29T22:32:32.411Z,27.70
2024-02-29T22:35:00.502Z,27.48
2024-02-29T22:37:28.581Z,26.50
2024-02-29T22:39:57.972Z,26.17
2024-02-29T22:42:26.231Z,27.33
2024-02-29T22:44:53.527Z,26.67
2024-02-29T22:47:21.633Z,28.27
2024-02-29T22:49:49.631Z,27.10
2024-02-29T22:52:17.620Z,28.00
2024-02-29T22:54:46.903Z,27.73
2024-02-29T22:57:16.283Z,29.60
2024-02-29T22:59:44.246Z,28.45
2024-02-29T23:02:12.273Z,28.08
2024-02-29T23:04:40.363Z,27.33
2024-02-29T23:07:08.547Z,29.67
2024-02-29T23:09:37.424Z,27.25
2024-02-29T23:12:05.996Z,28.52
2024-02-29T23:14:35.345Z,26.00
2024-02-29T23:17:03.367Z,28.20
2024-02-29T23:19:31.999Z,28.38
2024-02-29T23:22:00.079Z,27.15
2024-02-29T23:24:28.044Z,27.50
2024-02-29T23:26:55.987Z,26.08
2024-02-29T23:29:23.967Z,27.88
2024-02-29T23:31:53.376Z,27.65
2024-02-29T23:34:22.372Z,29.02
2024-02-29T23:36:51.750Z,28.35
2024-02-29T23:39:20.252Z,27.75
2024-02-29T23:41:48.497Z,30.15
2024-02-29T23:44:16.425Z,29.33
2024-02-29T23:46:44.594Z,29.40
2024-02-29T23:49:13.997Z,29.48
2024-02-29T23:51:43.176Z,29.13
2024-02-29T23:54:11.501Z,30.58
2024-02-29T23:56:39.512Z,30.13
2024-02-29T23:59:07.572Z,28.08
